sensor_id;sensor_type;location;lat;lon;timestamp;pressure;altitude;pressure_sealevel;temperature;humidity
21102;BME280;10709;49.006;12.100;2023-05-14T00:00:31;48971.31;;;-146.00;82.60
21102;BME280;10709;49.006;12.100;2023-05-14T00:02:58;49008.53;;;-146.00;84.12
21102;BME280;10709;49.006;12.100;2023-05-14T00:05:25;49020.31;;;-146.00;84.12
21102;BME280;10709;49.006;12.100;2023-05-14T00:07:53;49043.81;;;-146.00;84.12
21102;BME280;10709;49.006;12.100;2023-05-14T00:10:21;49020.31;;;-146.00;83.88
21102;BME280;10709;49.006;12.100;2023-05-14T00:12:50;49004.63;;;-146.00;84.02
21102;BME280;10709;49.006;12.100;2023-05-14T00:15:18;48992.88;;;-146.00;83.57
21102;BME280;10709;49.006;12.100;2023-05-14T00:17:45;49047.72;;;-146.00;85.92
21102;BME280;10709;49.006;12.100;2023-05-14T00:20:12;48996.78;;;-146.00;86.78
21102;BME280;10709;49.006;12.100;2023-05-14T00:22:40;49032.06;;;-146.00;86.12
21102;BME280;10709;49.006;12.100;2023-05-14T00:25:08;49035.97;;;-146.00;86.72
21102;BME280;10709;49.006;12.100;2023-05-14T00:27:35;49012.47;;;-146.00;85.94
21102;BME280;10709;49.006;12.100;2023-05-14T00:30:04;49034.00;;;-146.00;86.05
21102;BME280;10709;49.006;12.100;2023-05-14T00:32:32;49049.69;;;-146.00;86.10
21102;BME280;10709;49.006;12.100;2023-05-14T00:35:00;49020.31;;;-146.00;84.93
21102;BME280;10709;49.006;12.100;2023-05-14T00:37:29;49004.63;;;-146.00;84.82
21102;BME280;10709;49.006;12.100;2023-05-14T00:39:56;49022.25;;;-146.00;85.01
21102;BME280;10709;49.006;12.100;2023-05-14T00:42:23;49032.06;;;-146.00;86.03
21102;BME280;10709;49.006;12.100;2023-05-14T00:44:51;49035.97;;;-146.00;86.48
21102;BME280;10709;49.006;12.100;2023-05-14T00:47:20;49071.25;;;-146.00;86.64
21102;BME280;10709;49.006;12.100;2023-05-14T00:49:47;49032.06;;;-146.00;86.21
21102;BME280;10709;49.006;12.100;2023-05-14T00:52:15;49051.66;;;-146.00;85.35
21102;BME280;10709;49.006;12.100;2023-05-14T00:54:44;48992.88;;;-146.00;84.88
21102;BME280;10709;49.006;12.100;2023-05-14T00:57:12;49028.13;;;-146.00;84.62
21102;BME280;10709;49.006;12.100;2023-05-14T00:59:39;48994.84;;;-146.00;84.97
21102;BME280;10709;49.006;12.100;2023-05-14T01:02:08;49022.25;;;-146.00;86.29
21102;BME280;10709;49.006;12.100;2023-05-14T01:04:35;49014.41;;;-146.00;86.55
21102;BME280;10709;49.006;12.100;2023-05-14T01:07:12;49016.38;;;-146.00;85.70
21102;BME280;10709;49.006;12.100;2023-05-14T01:09:52;48996.78;;;-146.00;84.83
21102;BME280;10709;49.006;12.100;2023-05-14T01:12:32;49024.22;;;-146.00;85.14
21102;BME280;10709;49.006;12.100;2023-05-14T01:15:18;49026.19;;;-146.00;85.27
21102;BME280;10709;49.006;12.100;2023-05-14T01:17:56;49039.88;;;-146.00;84.29
21102;BME280;10709;49.006;12.100;2023-05-14T01:20:27;48992.88;;;-146.00;83.77
21102;BME280;10709;49.006;12.100;2023-05-14T01:22:55;49012.47;;;-146.00;83.67
21102;BME280;10709;49.006;12.100;2023-05-14T01:25:22;49010.50;;;-146.00;84.40
21102;BME280;10709;49.006;12.100;2023-05-14T01:30:33;49035.97;;;-146.00;83.59
21102;BME280;10709;49.006;12.100;2023-05-14T01:33:13;48988.94;;;-146.00;82.64
21102;BME280;10709;49.006;12.100;2023-05-14T01:35:42;48988.94;;;-146.00;82.27
21102;BME280;10709;49.006;12.100;2023-05-14T01:38:11;49026.19;;;-146.00;82.78
21102;BME280;10709;49.006;12.100;2023-05-14T01:40:40;49006.59;;;-146.00;83.70
21102;BME280;10709;49.006;12.100;2023-05-14T01:43:07;48983.06;;;-146.00;83.34
21102;BME280;10709;49.006;12.100;2023-05-14T01:45:35;49039.88;;;-146.00;83.41
21102;BME280;10709;49.006;12.100;2023-05-14T01:48:04;49012.47;;;-146.00;83.58
21102;BME280;10709;49.006;12.100;2023-05-14T01:50:32;49016.38;;;-146.00;82.89
21102;BME280;10709;49.006;12.100;2023-05-14T01:58:23;48996.78;;;-146.00;83.71
21102;BME280;10709;49.006;12.100;2023-05-14T02:00:50;49004.63;;;-146.00;83.73
21102;BME280;10709;49.006;12.100;2023-05-14T02:03:16;49014.41;;;-146.00;83.36
21102;BME280;10709;49.006;12.100;2023-05-14T02:05:44;49032.06;;;-146.00;83.05
21102;BME280;10709;49.006;12.100;2023-05-14T02:08:11;49024.22;;;-146.00;83.32
21102;BME280;10709;49.006;12.100;2023-05-14T02:10:37;48969.38;;;-146.00;83.23
21102;BME280;10709;49.006;12.100;2023-05-14T02:34:40;49022.25;;;-146.00;84.62
21102;BME280;10709;49.006;12.100;2023-05-14T02:37:07;49039.88;;;-146.00;83.59
21102;BME280;10709;49.006;12.100;2023-05-14T02:39:34;49045.78;;;-146.00;83.82
21102;BME280;10709;49.006;12.100;2023-05-14T02:42:01;49032.06;;;-146.00;84.03
21102;BME280;10709;49.006;12.100;2023-05-14T02:44:28;49000.72;;;-146.00;84.91
21102;BME280;10709;49.006;12.100;2023-05-14T02:46:57;49071.25;;;-146.00;84.79
21102;BME280;10709;49.006;12.100;2023-05-14T02:49:24;49012.47;;;-146.00;84.54
21102;BME280;10709;49.006;12.100;2023-05-14T02:51:51;49018.34;;;-146.00;85.25
21102;BME280;10709;49.006;12.100;2023-05-14T02:54:19;49032.06;;;-146.00;85.27
21102;BME280;10709;49.006;12.100;2023-05-14T02:56:47;49043.81;;;-146.00;85.85
21102;BME280;10709;49.006;12.100;2023-05-14T02:59:13;49035.97;;;-146.00;86.33
21102;BME280;10709;49.006;12.100;2023-05-14T03:01:41;49032.06;;;-146.00;86.42
21102;BME280;10709;49.006;12.100;2023-05-14T03:04:09;49039.88;;;-146.00;85.86
21102;BME280;10709;49.006;12.100;2023-05-14T03:06:36;49039.88;;;-146.00;85.16
21102;BME280;10709;49.006;12.100;2023-05-14T03:09:03;49024.22;;;-146.00;85.03
21102;BME280;10709;49.006;12.100;2023-05-14T03:11:30;49055.56;;;-146.00;84.76
21102;BME280;10709;49.006;12.100;2023-05-14T03:13:57;49043.81;;;-146.00;84.90
21102;BME280;10709;49.006;12.100;2023-05-14T03:16:24;49012.47;;;-146.00;85.83
21102;BME280;10709;49.006;12.100;2023-05-14T03:18:51;49043.81;;;-146.00;86.03
21102;BME280;10709;49.006;12.100;2023-05-14T03:21:18;49047.72;;;-146.00;86.62
21102;BME280;10709;49.006;12.100;2023-05-14T03:23:46;49035.97;;;-146.00;86.42
21102;BME280;10709;49.006;12.100;2023-05-14T03:26:13;49012.47;;;-146.00;86.56
21102;BME280;10709;49.006;12.100;2023-05-14T03:28:40;49051.66;;;-146.00;86.23
21102;BME280;10709;49.006;12.100;2023-05-14T03:31:07;49020.31;;;-146.00;87.43
21102;BME280;10709;49.006;12.100;2023-05-14T03:33:34;49043.81;;;-146.00;88.88
21102;BME280;10709;49.006;12.100;2023-05-14T03:36:01;49071.25;;;-146.00;89.18
21102;BME280;10709;49.006;12.100;2023-05-14T03:38:28;49083.00;;;-146.00;89.29
21102;BME280;10709;49.006;12.100;2023-05-14T04:19:13;49057.53;;;-146.00;93.44
21102;BME280;10709;49.006;12.100;2023-05-14T04:21:39;49047.72;;;-146.00;94.12
21102;BME280;10709;49.006;12.100;2023-05-14T04:24:06;49014.41;;;-146.00;92.98
21102;BME280;10709;49.006;12.100;2023-05-14T04:26:34;49071.25;;;-146.00;93.55
21102;BME280;10709;49.006;12.100;2023-05-14T04:29:01;49055.56;;;-146.00;94.97
21102;BME280;10709;49.006;12.100;2023-05-14T04:31:29;49008.53;;;-146.00;94.49
21102;BME280;10709;49.006;12.100;2023-05-14T04:33:57;49055.56;;;-146.00;94.78
21102;BME280;10709;49.006;12.100;2023-05-14T04:36:24;49035.97;;;-146.00;93.22
21102;BME280;10709;49.006;12.100;2023-05-14T04:38:50;49057.53;;;-146.00;92.30
21102;BME280;10709;49.006;12.100;2023-05-14T04:41:17;49051.66;;;-146.00;92.39
21102;BME280;10709;49.006;12.100;2023-05-14T04:43:48;49069.28;;;-146.00;91.20
21102;BME280;10709;49.006;12.100;2023-05-14T04:46:15;49047.72;;;-146.00;91.42
21102;BME280;10709;49.006;12.100;2023-05-14T04:48:42;49051.66;;;-146.00;92.48
21102;BME280;10709;49.006;12.100;2023-05-14T04:51:09;49039.88;;;-146.00;92.52
21102;BME280;10709;49.006;12.100;2023-05-14T04:53:35;49071.25;;;-146.00;91.09
21102;BME280;10709;49.006;12.100;2023-05-14T04:56:02;49035.97;;;-146.00;90.97
21102;BME280;10709;49.006;12.100;2023-05-14T04:58:28;49049.69;;;-146.00;89.50
21102;BME280;10709;49.006;12.100;2023-05-14T05:01:00;49041.84;;;-146.00;88.86
21102;BME280;10709;49.006;12.100;2023-05-14T05:03:28;49055.56;;;-146.00;89.55
21102;BME280;10709;49.006;12.100;2023-05-14T05:05:55;49043.81;;;-146.00;89.08
21102;BME280;10709;49.006;12.100;2023-05-14T05:08:21;49035.97;;;-146.00;89.76
21102;BME280;10709;49.006;12.100;2023-05-14T05:10:48;49055.56;;;-146.00;89.28
21102;BME280;10709;49.006;12.100;2023-05-14T05:13:15;49039.88;;;-146.00;88.46
21102;BME280;10709;49.006;12.100;2023-05-14T05:15:42;49047.72;;;-146.00;88.10
21102;BME280;10709;49.006;12.100;2023-05-14T05:18:09;49035.97;;;-146.00;88.89
21102;BME280;10709;49.006;12.100;2023-05-14T05:20:35;49059.47;;;-146.00;88.16
21102;BME280;10709;49.006;12.100;2023-05-14T05:23:02;49067.31;;;-146.00;88.56
21102;BME280;10709;49.006;12.100;2023-05-14T05:25:29;49063.41;;;-146.00;87.91
21102;BME280;10709;49.006;12.100;2023-05-14T05:27:56;49024.22;;;-146.00;86.48
21102;BME280;10709;49.006;12.100;2023-05-14T05:30:23;49063.41;;;-146.00;87.39
21102;BME280;10709;49.006;12.100;2023-05-14T05:32:50;49063.41;;;-146.00;86.83
21102;BME280;10709;49.006;12.100;2023-05-14T05:35:16;49057.53;;;-146.00;85.00
21102;BME280;10709;49.006;12.100;2023-05-14T05:37:43;49032.06;;;-146.00;83.53
21102;BME280;10709;49.006;12.100;2023-05-14T05:40:11;49004.63;;;-146.00;82.16
21102;BME280;10709;49.006;12.100;2023-05-14T05:42:40;49035.97;;;-146.00;82.25
21102;BME280;10709;49.006;12.100;2023-05-14T05:45:08;48969.38;;;-146.00;81.85
21102;BME280;10709;49.006;12.100;2023-05-14T05:47:35;48988.94;;;-146.00;81.97
21102;BME280;10709;49.006;12.100;2023-05-14T05:50:06;49012.47;;;-146.00;80.88
21102;BME280;10709;49.006;12.100;2023-05-14T05:52:34;48996.78;;;-146.00;79.82
21102;BME280;10709;49.006;12.100;2023-05-14T05:55:01;48930.19;;;-146.00;77.84
21102;BME280;10709;49.006;12.100;2023-05-14T05:57:27;48934.09;;;-146.00;77.09
21102;BME280;10709;49.006;12.100;2023-05-14T05:59:54;48908.63;;;-146.00;78.14
21102;BME280;10709;49.006;12.100;2023-05-14T06:02:21;48961.53;;;-146.00;78.54
21102;BME280;10709;49.006;12.100;2023-05-14T06:04:48;48922.34;;;-146.00;78.07
21102;BME280;10709;49.006;12.100;2023-05-14T06:07:16;48914.50;;;-146.00;76.16
21102;BME280;10709;49.006;12.100;2023-05-14T06:09:43;48906.69;;;-146.00;76.81
21102;BME280;10709;49.006;12.100;2023-05-14T06:12:09;48916.47;;;-146.00;76.91
21102;BME280;10709;49.006;12.100;2023-05-14T06:14:38;48947.81;;;-146.00;75.73
21102;BME280;10709;49.006;12.100;2023-05-14T06:17:04;48910.59;;;-146.00;75.44
21102;BME280;10709;49.006;12.100;2023-05-14T06:19:32;48898.84;;;-146.00;74.36
21102;BME280;10709;49.006;12.100;2023-05-14T06:21:59;48881.22;;;-146.00;73.72
21102;BME280;10709;49.006;12.100;2023-05-14T06:24:26;48918.44;;;-146.00;73.20
21102;BME280;10709;49.006;12.100;2023-05-14T06:26:52;48871.41;;;-146.00;70.48
21102;BME280;10709;49.006;12.100;2023-05-14T06:29:19;48875.34;;;-146.00;71.56
21102;BME280;10709;49.006;12.100;2023-05-14T06:31:46;48847.91;;;-146.00;70.85
21102;BME280;10709;49.006;12.100;2023-05-14T06:34:14;48853.78;;;-146.00;71.35
21102;BME280;10709;49.006;12.100;2023-05-14T06:36:41;48853.78;;;-146.00;72.64
21102;BME280;10709;49.006;12.100;2023-05-14T06:39:08;48855.75;;;-146.00;73.31
21102;BME280;10709;49.006;12.100;2023-05-14T06:41:35;48902.75;;;-146.00;73.68
21102;BME280;10709;49.006;12.100;2023-05-14T06:44:01;48883.16;;;-146.00;73.13
21102;BME280;10709;49.006;12.100;2023-05-14T06:46:31;48859.66;;;-146.00;72.34
21102;BME280;10709;49.006;12.100;2023-05-14T06:48:57;48891.00;;;-146.00;71.72
21102;BME280;10709;49.006;12.100;2023-05-14T06:51:25;48871.41;;;-146.00;72.34
21102;BME280;10709;49.006;12.100;2023-05-14T06:53:51;48863.56;;;-146.00;71.91
21102;BME280;10709;49.006;12.100;2023-05-14T06:56:20;48875.34;;;-146.00;71.68
21102;BME280;10709;49.006;12.100;2023-05-14T06:58:47;48867.50;;;-146.00;71.42
21102;BME280;10709;49.006;12.100;2023-05-14T07:01:15;48845.94;;;-146.00;70.80
21102;BME280;10709;49.006;12.100;2023-05-14T07:03:42;48840.06;;;-146.00;70.41
21102;BME280;10709;49.006;12.100;2023-05-14T07:06:08;48857.69;;;-146.00;70.39
21102;BME280;10709;49.006;12.100;2023-05-14T07:08:38;48871.41;;;-146.00;70.45
21102;BME280;10709;49.006;12.100;2023-05-14T07:17:18;48824.41;;;-146.00;67.70
21102;BME280;10709;49.006;12.100;2023-05-14T07:19:44;48832.22;;;-146.00;67.92
21102;BME280;10709;49.006;12.100;2023-05-14T07:22:12;48845.94;;;-146.00;68.33
21102;BME280;10709;49.006;12.100;2023-05-14T07:24:38;48832.22;;;-146.00;69.83
21102;BME280;10709;49.006;12.100;2023-05-14T07:27:05;48844.00;;;-146.00;70.19
21102;BME280;10709;49.006;12.100;2023-05-14T07:29:31;48863.56;;;-146.00;70.31
21102;BME280;10709;49.006;12.100;2023-05-14T07:32:00;48830.28;;;-146.00;68.25
21102;BME280;10709;49.006;12.100;2023-05-14T07:34:27;48847.91;;;-146.00;68.17
21102;BME280;10709;49.006;12.100;2023-05-14T07:36:53;48844.00;;;-146.00;67.52
21102;BME280;10709;49.006;12.100;2023-05-14T07:39:20;48828.31;;;-146.00;66.89
21102;BME280;10709;49.006;12.100;2023-05-14T07:41:46;48828.31;;;-146.00;66.61
21102;BME280;10709;49.006;12.100;2023-05-14T07:44:13;48836.16;;;-146.00;66.51
21102;BME280;10709;49.006;12.100;2023-05-14T07:46:40;48818.53;;;-146.00;66.80
21102;BME280;10709;49.006;12.100;2023-05-14T07:49:06;48847.91;;;-146.00;66.98
21102;BME280;10709;49.006;12.100;2023-05-14T07:51:32;48816.56;;;-146.00;67.05
21102;BME280;10709;49.006;12.100;2023-05-14T07:53:59;48820.47;;;-146.00;66.43
21102;BME280;10709;49.006;12.100;2023-05-14T07:56:26;48804.81;;;-146.00;65.64
21102;BME280;10709;49.006;12.100;2023-05-14T07:58:52;48828.31;;;-146.00;65.26
21102;BME280;10709;49.006;12.100;2023-05-14T08:01:19;48830.28;;;-146.00;63.94
21102;BME280;10709;49.006;12.100;2023-05-14T08:03:45;48832.22;;;-146.00;64.38
21102;BME280;10709;49.006;12.100;2023-05-14T08:06:12;48836.16;;;-146.00;65.28
21102;BME280;10709;49.006;12.100;2023-05-14T08:08:39;48812.63;;;-146.00;64.73
21102;BME280;10709;49.006;12.100;2023-05-14T08:11:06;48849.88;;;-146.00;64.66
21102;BME280;10709;49.006;12.100;2023-05-14T08:13:32;48845.94;;;-146.00;64.70
21102;BME280;10709;49.006;12.100;2023-05-14T08:15:59;48836.16;;;-146.00;63.56
21102;BME280;10709;49.006;12.100;2023-05-14T08:18:25;48824.41;;;-146.00;64.40
21102;BME280;10709;49.006;12.100;2023-05-14T08:20:52;48816.56;;;-146.00;64.81
21102;BME280;10709;49.006;12.100;2023-05-14T08:23:18;48806.75;;;-146.00;64.92
21102;BME280;10709;49.006;12.100;2023-05-14T08:25:44;48830.28;;;-146.00;65.18
21102;BME280;10709;49.006;12.100;2023-05-14T08:28:11;48851.81;;;-146.00;65.21
21102;BME280;10709;49.006;12.100;2023-05-14T08:30:37;48820.47;;;-146.00;64.72
21102;BME280;10709;49.006;12.100;2023-05-14T08:33:04;48832.22;;;-146.00;64.80
21102;BME280;10709;49.006;12.100;2023-05-14T08:35:30;48796.97;;;-146.00;64.79
21102;BME280;10709;49.006;12.100;2023-05-14T08:37:57;48832.22;;;-146.00;62.24
21102;BME280;10709;49.006;12.100;2023-05-14T08:40:23;48800.88;;;-146.00;64.00
21102;BME280;10709;49.006;12.100;2023-05-14T08:42:51;48832.22;;;-146.00;64.37
21102;BME280;10709;49.006;12.100;2023-05-14T08:45:23;48820.47;;;-146.00;64.03
21102;BME280;10709;49.006;12.100;2023-05-14T08:47:51;48836.16;;;-146.00;63.59
21102;BME280;10709;49.006;12.100;2023-05-14T08:50:19;48826.34;;;-146.00;63.23
21102;BME280;10709;49.006;12.100;2023-05-14T08:52:49;48851.81;;;-146.00;63.71
21102;BME280;10709;49.006;12.100;2023-05-14T08:55:15;48820.47;;;-146.00;63.28
21102;BME280;10709;49.006;12.100;2023-05-14T08:57:41;48824.41;;;-146.00;63.80
21102;BME280;10709;49.006;12.100;2023-05-14T09:00:08;48830.28;;;-146.00;64.21
21102;BME280;10709;49.006;12.100;2023-05-14T09:02:39;48836.16;;;-146.00;64.39
21102;BME280;10709;49.006;12.100;2023-05-14T09:05:06;48826.34;;;-146.00;63.20
21102;BME280;10709;49.006;12.100;2023-05-14T09:07:34;48855.75;;;-146.00;64.77
21102;BME280;10709;49.006;12.100;2023-05-14T09:10:01;48836.16;;;-146.00;64.29
21102;BME280;10709;49.006;12.100;2023-05-14T09:12:29;48832.22;;;-146.00;64.36
21102;BME280;10709;49.006;12.100;2023-05-14T09:14:56;48855.75;;;-146.00;62.85
21102;BME280;10709;49.006;12.100;2023-05-14T09:17:24;48816.56;;;-146.00;62.43
21102;BME280;10709;49.006;12.100;2023-05-14T09:19:51;48796.97;;;-146.00;61.57
21102;BME280;10709;49.006;12.100;2023-05-14T09:22:19;48836.16;;;-146.00;62.58
21102;BME280;10709;49.006;12.100;2023-05-14T09:24:45;48830.28;;;-146.00;62.37
21102;BME280;10709;49.006;12.100;2023-05-14T09:27:18;48844.00;;;-146.00;62.91
21102;BME280;10709;49.006;12.100;2023-05-14T09:29:47;48851.81;;;-146.00;63.20
21102;BME280;10709;49.006;12.100;2023-05-14T09:32:14;48851.81;;;-146.00;63.65
21102;BME280;10709;49.006;12.100;2023-05-14T09:34:40;48812.63;;;-146.00;63.04
21102;BME280;10709;49.006;12.100;2023-05-14T09:37:08;48808.72;;;-146.00;63.60
21102;BME280;10709;49.006;12.100;2023-05-14T09:39:35;48816.56;;;-146.00;62.99
21102;BME280;10709;49.006;12.100;2023-05-14T09:42:03;48820.47;;;-146.00;63.03
21102;BME280;10709;49.006;12.100;2023-05-14T09:44:29;48836.16;;;-146.00;63.44
21102;BME280;10709;49.006;12.100;2023-05-14T09:46:57;48828.31;;;-146.00;63.72
21102;BME280;10709;49.006;12.100;2023-05-14T09:49:23;48840.06;;;-146.00;64.27
21102;BME280;10709;49.006;12.100;2023-05-14T09:51:50;48840.06;;;-146.00;61.74
21102;BME280;10709;49.006;12.100;2023-05-14T09:54:17;48816.56;;;-146.00;62.67
21102;BME280;10709;49.006;12.100;2023-05-14T09:56:43;48859.66;;;-146.00;62.18
21102;BME280;10709;49.006;12.100;2023-05-14T09:59:10;48832.22;;;-146.00;62.72
21102;BME280;10709;49.006;12.100;2023-05-14T10:01:37;48828.31;;;-146.00;61.07
21102;BME280;10709;49.006;12.100;2023-05-14T10:04:06;48844.00;;;-146.00;61.30
21102;BME280;10709;49.006;12.100;2023-05-14T10:06:36;48814.59;;;-146.00;61.04
21102;BME280;10709;49.006;12.100;2023-05-14T10:09:04;48830.28;;;-146.00;61.18
21102;BME280;10709;49.006;12.100;2023-05-14T10:11:36;48822.44;;;-146.00;61.29
21102;BME280;10709;49.006;12.100;2023-05-14T10:14:07;48828.31;;;-146.00;60.52
21102;BME280;10709;49.006;12.100;2023-05-14T10:16:36;48840.06;;;-146.00;61.68
21102;BME280;10709;49.006;12.100;2023-05-14T10:19:09;48808.72;;;-146.00;60.13
21102;BME280;10709;49.006;12.100;2023-05-14T10:21:37;48867.50;;;-146.00;59.19
21102;BME280;10709;49.006;12.100;2023-05-14T10:24:04;48832.22;;;-146.00;59.00
21102;BME280;10709;49.006;12.100;2023-05-14T10:26:33;48863.56;;;-146.00;58.48
21102;BME280;10709;49.006;12.100;2023-05-14T10:29:02;48808.72;;;-146.00;59.31
21102;BME280;10709;49.006;12.100;2023-05-14T10:31:48;48828.31;;;-146.00;60.04
21102;BME280;10709;49.006;12.100;2023-05-14T10:34:32;48836.16;;;-146.00;60.80
21102;BME280;10709;49.006;12.100;2023-05-14T10:37:01;48828.31;;;-146.00;60.78
21102;BME280;10709;49.006;12.100;2023-05-14T10:42:25;48812.63;;;-146.00;60.88
21102;BME280;10709;49.006;12.100;2023-05-14T10:44:58;48820.47;;;-146.00;60.95
21102;BME280;10709;49.006;12.100;2023-05-14T10:47:27;48820.47;;;-146.00;60.11
21102;BME280;10709;49.006;12.100;2023-05-14T10:49:56;48840.06;;;-146.00;59.65
21102;BME280;10709;49.006;12.100;2023-05-14T10:52:24;48808.72;;;-146.00;60.02
21102;BME280;10709;49.006;12.100;2023-05-14T10:57:18;48847.91;;;-146.00;60.18
21102;BME280;10709;49.006;12.100;2023-05-14T10:59:46;48834.19;;;-146.00;59.98
21102;BME280;10709;49.006;12.100;2023-05-14T11:02:35;48836.16;;;-146.00;59.92
21102;BME280;10709;49.006;12.100;2023-05-14T11:05:05;48847.91;;;-146.00;60.26
21102;BME280;10709;49.006;12.100;2023-05-14T11:07:38;48796.97;;;-146.00;60.37
21102;BME280;10709;49.006;12.100;2023-05-14T11:10:07;48826.34;;;-146.00;60.46
21102;BME280;10709;49.006;12.100;2023-05-14T11:12:36;48824.41;;;-146.00;60.54
21102;BME280;10709;49.006;12.100;2023-05-14T11:15:06;48830.28;;;-146.00;59.79
21102;BME280;10709;49.006;12.100;2023-05-14T11:17:34;48840.06;;;-146.00;60.60
21102;BME280;10709;49.006;12.100;2023-05-14T11:20:01;48828.31;;;-146.00;59.88
21102;BME280;10709;49.006;12.100;2023-05-14T11:22:27;48808.72;;;-146.00;60.04
21102;BME280;10709;49.006;12.100;2023-05-14T11:24:54;48828.31;;;-146.00;60.01
21102;BME280;10709;49.006;12.100;2023-05-14T11:27:21;48812.63;;;-146.00;59.58
21102;BME280;10709;49.006;12.100;2023-05-14T11:29:49;48804.81;;;-146.00;59.81
21102;BME280;10709;49.006;12.100;2023-05-14T11:32:17;48836.16;;;-146.00;58.83
21102;BME280;10709;49.006;12.100;2023-05-14T11:34:45;48822.44;;;-146.00;59.35
21102;BME280;10709;49.006;12.100;2023-05-14T11:37:13;48812.63;;;-146.00;60.32
21102;BME280;10709;49.006;12.100;2023-05-14T11:39:51;48832.22;;;-146.00;60.52
21102;BME280;10709;49.006;12.100;2023-05-14T11:42:19;48826.34;;;-146.00;60.19
21102;BME280;10709;49.006;12.100;2023-05-14T11:44:48;48845.94;;;-146.00;59.60
21102;BME280;10709;49.006;12.100;2023-05-14T11:47:16;48832.22;;;-146.00;59.49
21102;BME280;10709;49.006;12.100;2023-05-14T11:49:43;48834.19;;;-146.00;60.28
21102;BME280;10709;49.006;12.100;2023-05-14T11:52:12;48845.94;;;-146.00;59.56
21102;BME280;10709;49.006;12.100;2023-05-14T11:54:42;48816.56;;;-146.00;58.79
21102;BME280;10709;49.006;12.100;2023-05-14T11:57:15;48832.22;;;-146.00;58.15
21102;BME280;10709;49.006;12.100;2023-05-14T11:59:42;48853.78;;;-146.00;58.89
21102;BME280;10709;49.006;12.100;2023-05-14T12:02:13;48851.81;;;-146.00;58.89
21102;BME280;10709;49.006;12.100;2023-05-14T12:04:41;48847.91;;;-146.00;58.77
21102;BME280;10709;49.006;12.100;2023-05-14T12:07:09;48840.06;;;-146.00;58.57
21102;BME280;10709;49.006;12.100;2023-05-14T12:09:44;48826.34;;;-146.00;58.52
21102;BME280;10709;49.006;12.100;2023-05-14T12:12:20;48855.75;;;-146.00;57.56
21102;BME280;10709;49.006;12.100;2023-05-14T12:14:48;48849.88;;;-146.00;57.01
21102;BME280;10709;49.006;12.100;2023-05-14T12:17:17;48838.09;;;-146.00;58.41
21102;BME280;10709;49.006;12.100;2023-05-14T12:19:47;48840.06;;;-146.00;57.40
21102;BME280;10709;49.006;12.100;2023-05-14T12:22:17;48844.00;;;-146.00;58.71
21102;BME280;10709;49.006;12.100;2023-05-14T12:24:52;48844.00;;;-146.00;57.63
21102;BME280;10709;49.006;12.100;2023-05-14T12:27:23;48820.47;;;-146.00;58.20
21102;BME280;10709;49.006;12.100;2023-05-14T12:30:01;48826.34;;;-146.00;58.13
21102;BME280;10709;49.006;12.100;2023-05-14T12:32:48;48851.81;;;-146.00;57.65
21102;BME280;10709;49.006;12.100;2023-05-14T12:35:19;48851.81;;;-146.00;57.75
21102;BME280;10709;49.006;12.100;2023-05-14T12:37:46;48826.34;;;-146.00;56.86
21102;BME280;10709;49.006;12.100;2023-05-14T12:40:13;48832.22;;;-146.00;56.96
21102;BME280;10709;49.006;12.100;2023-05-14T12:42:39;48840.06;;;-146.00;56.37
21102;BME280;10709;49.006;12.100;2023-05-14T12:45:06;48851.81;;;-146.00;57.09
21102;BME280;10709;49.006;12.100;2023-05-14T12:47:34;48840.06;;;-146.00;56.37
21102;BME280;10709;49.006;12.100;2023-05-14T12:50:02;48816.56;;;-146.00;55.99
21102;BME280;10709;49.006;12.100;2023-05-14T12:52:28;48855.75;;;-146.00;56.48
21102;BME280;10709;49.006;12.100;2023-05-14T12:54:57;48851.81;;;-146.00;57.04
21102;BME280;10709;49.006;12.100;2023-05-14T12:57:24;48824.41;;;-146.00;56.81
21102;BME280;10709;49.006;12.100;2023-05-14T12:59:54;48830.28;;;-146.00;56.63
21102;BME280;10709;49.006;12.100;2023-05-14T13:02:20;48828.31;;;-146.00;57.07
21102;BME280;10709;49.006;12.100;2023-05-14T13:04:47;48816.56;;;-146.00;55.35
21102;BME280;10709;49.006;12.100;2023-05-14T13:07:14;48844.00;;;-146.00;55.01
21102;BME280;10709;49.006;12.100;2023-05-14T13:09:40;48836.16;;;-146.00;55.74
21102;BME280;10709;49.006;12.100;2023-05-14T13:12:07;48834.19;;;-146.00;55.65
21102;BME280;10709;49.006;12.100;2023-05-14T13:14:34;48828.31;;;-146.00;55.63
21102;BME280;10709;49.006;12.100;2023-05-14T13:17:02;48836.16;;;-146.00;56.76
21102;BME280;10709;49.006;12.100;2023-05-14T13:19:29;48859.66;;;-146.00;56.61
21102;BME280;10709;49.006;12.100;2023-05-14T13:21:56;48844.00;;;-146.00;55.05
21102;BME280;10709;49.006;12.100;2023-05-14T13:24:22;48798.94;;;-146.00;54.66
21102;BME280;10709;49.006;12.100;2023-05-14T13:26:50;48847.91;;;-146.00;55.39
21102;BME280;10709;49.006;12.100;2023-05-14T13:29:16;48796.97;;;-146.00;58.69
21102;BME280;10709;49.006;12.100;2023-05-14T13:31:43;48847.91;;;-146.00;64.58
21102;BME280;10709;49.006;12.100;2023-05-14T13:34:09;48824.41;;;-146.00;64.84
21102;BME280;10709;49.006;12.100;2023-05-14T13:36:36;48828.31;;;-146.00;66.30
21102;BME280;10709;49.006;12.100;2023-05-14T13:39:05;48863.56;;;-146.00;70.96
21102;BME280;10709;49.006;12.100;2023-05-14T13:41:32;48914.50;;;-146.00;77.09
21102;BME280;10709;49.006;12.100;2023-05-14T13:44:00;49026.19;;;-146.00;80.89
21102;BME280;10709;49.006;12.100;2023-05-14T13:46:27;49063.41;;;-146.00;86.43
21102;BME280;10709;49.006;12.100;2023-05-14T13:48:54;49053.59;;;-146.00;87.55
21102;BME280;10709;49.006;12.100;2023-05-14T13:51:21;49049.69;;;-146.00;85.20
21102;BME280;10709;49.006;12.100;2023-05-14T13:53:48;49053.59;;;-146.00;82.08